createdAt,value
2019-01-04T00:00:39.769Z,3.52
2019-01-04T00:01:39.909Z,3.69
2019-01-04T00:02:40.028Z,3.73
2019-01-04T00:03:40.155Z,3.70
2019-01-04T00:04:40.288Z,3.88
2019-01-04T00:05:40.414Z,3.82
2019-01-04T00:06:40.597Z,3.81
2019-01-04T00:07:40.671Z,3.84
2019-01-04T00:08:40.843Z,3.87
2019-01-04T00:09:41.030Z,3.90
2019-01-04T00:10:41.106Z,3.90
2019-01-04T00:11:41.238Z,3.92
2019-01-04T00:12:41.362Z,3.94
2019-01-04T00:13:41.494Z,3.92
2019-01-04T00:14:41.629Z,3.85
2019-01-04T00:15:41.764Z,4.00
2019-01-04T00:16:41.890Z,3.94
2019-01-04T00:17:42.023Z,3.91
2019-01-04T00:18:42.160Z,3.90
2019-01-04T00:19:42.281Z,3.90
2019-01-04T00:20:42.417Z,3.90
2019-01-04T00:21:42.557Z,3.98
2019-01-04T00:22:42.677Z,3.96
2019-01-04T00:23:42.799Z,3.90
2019-01-04T00:24:42.927Z,3.90
2019-01-04T00:25:43.057Z,3.90
2019-01-04T00:26:43.189Z,3.88
2019-01-04T00:27:43.315Z,3.99
2019-01-04T00:28:43.476Z,3.90
2019-01-04T00:29:43.601Z,4.00
2019-01-04T00:30:43.731Z,3.90
2019-01-04T00:31:43.852Z,3.92
2019-01-04T00:32:43.984Z,4.03
2019-01-04T00:33:44.111Z,3.90
2019-01-04T00:34:44.241Z,3.98
2019-01-04T00:35:44.364Z,3.92
2019-01-04T00:36:44.503Z,3.98
2019-01-04T00:37:44.623Z,4.02
2019-01-04T00:38:44.767Z,4.00
2019-01-04T00:39:44.885Z,3.98
2019-01-04T00:40:45.014Z,4.02
2019-01-04T00:41:45.151Z,4.05
2019-01-04T00:42:45.259Z,3.99
2019-01-04T00:45:18.215Z,3.94
2019-01-04T00:46:18.373Z,4.05
2019-01-04T00:47:39.495Z,4.06
2019-01-04T00:48:18.610Z,3.91
2019-01-04T00:49:18.734Z,4.00
2019-01-04T00:50:18.861Z,4.05
2019-01-04T00:51:25.976Z,4.03
2019-01-04T00:52:19.114Z,3.98
2019-01-04T00:53:19.242Z,3.90
2019-01-04T00:54:19.373Z,3.99
2019-01-04T00:55:19.502Z,3.92
2019-01-04T00:56:19.653Z,3.91
2019-01-04T00:57:19.774Z,3.91
2019-01-04T00:58:19.905Z,3.92
2019-01-04T00:59:20.037Z,4.02
2019-01-04T01:00:20.168Z,4.05
2019-01-04T01:01:20.289Z,4.00
2019-01-04T01:02:20.421Z,3.99
2019-01-04T01:03:20.550Z,3.96
2019-01-04T01:04:20.679Z,3.74
2019-01-04T01:05:20.810Z,3.81
2019-01-04T01:06:20.934Z,3.74
2019-01-04T01:07:21.065Z,3.76
2019-01-04T01:08:21.196Z,3.81
2019-01-04T01:09:21.324Z,3.76
2019-01-04T01:10:21.451Z,3.78
2019-01-04T01:11:21.586Z,3.76
2019-01-04T01:12:21.714Z,3.85
2019-01-04T01:13:21.852Z,3.82
2019-01-04T01:14:21.983Z,3.82
2019-01-04T01:15:22.106Z,3.87
2019-01-04T01:16:22.242Z,3.85
2019-01-04T01:17:22.370Z,3.84
2019-01-04T01:18:22.503Z,3.82
2019-01-04T01:19:22.632Z,3.85
2019-01-04T01:20:22.756Z,3.91
2019-01-04T01:21:22.895Z,3.99
2019-01-04T01:22:23.020Z,3.90
2019-01-04T01:23:23.146Z,3.91
2019-01-04T01:24:23.287Z,3.92
2019-01-04T01:25:23.380Z,3.91
2019-01-04T01:26:23.520Z,3.90
2019-01-04T01:27:23.647Z,3.90
2019-01-04T01:28:23.788Z,3.82
2019-01-04T01:29:23.916Z,3.81
2019-01-04T01:30:24.042Z,3.85
2019-01-04T01:31:24.170Z,3.82
2019-01-04T01:32:24.299Z,3.87
2019-01-04T01:33:24.427Z,3.73
2019-01-04T01:34:24.554Z,3.70
2019-01-04T01:35:24.681Z,3.73
2019-01-04T01:36:24.808Z,3.82
2019-01-04T01:37:24.935Z,3.80
2019-01-04T01:38:25.062Z,3.82
2019-01-04T01:39:25.192Z,3.81
2019-01-04T01:40:25.317Z,3.80
2019-01-04T01:41:25.448Z,3.90
2019-01-04T01:42:25.574Z,3.78
2019-01-04T01:43:25.704Z,3.85
2019-01-04T01:44:25.842Z,3.82
2019-01-04T01:45:25.971Z,3.82
2019-01-04T01:46:26.096Z,3.70
2019-01-04T01:47:26.226Z,3.85
2019-01-04T01:48:26.358Z,3.76
2019-01-04T01:49:26.483Z,3.88
2019-01-04T01:50:26.608Z,3.78
2019-01-04T01:51:26.735Z,3.74
2019-01-04T01:52:26.864Z,3.82
2019-01-04T01:53:27.943Z,3.82
2019-01-04T01:54:27.080Z,3.80
2019-01-04T01:55:27.205Z,3.82
2019-01-04T01:56:27.329Z,3.88
2019-01-04T01:57:27.465Z,3.66
2019-01-04T01:58:27.590Z,3.69
2019-01-04T01:59:27.729Z,3.67
2019-01-04T02:00:27.856Z,3.70
2019-01-04T02:01:27.981Z,3.66
2019-01-04T02:02:28.108Z,3.49
2019-01-04T02:03:28.238Z,3.51
2019-01-04T02:04:28.381Z,3.55
2019-01-04T02:05:28.501Z,3.51
2019-01-04T02:06:28.627Z,3.42
2019-01-04T02:07:28.755Z,3.32
2019-01-04T02:08:28.875Z,3.35
2019-01-04T02:09:29.001Z,3.41
2019-01-04T02:10:29.128Z,3.32
2019-01-04T02:11:29.261Z,3.46
2019-01-04T02:12:29.385Z,3.41
2019-01-04T02:13:29.517Z,3.49
2019-01-04T02:14:29.640Z,3.48
2019-01-04T02:15:29.769Z,3.54
2019-01-04T02:16:29.897Z,3.44
2019-01-04T02:17:30.027Z,3.36
2019-01-04T02:18:30.155Z,3.35
2019-01-04T02:19:30.288Z,3.48
2019-01-04T02:20:30.410Z,3.44
2019-01-04T02:21:30.534Z,3.45
2019-01-04T02:22:30.668Z,3.49
2019-01-04T02:23:30.799Z,3.41
2019-01-04T02:24:30.923Z,3.48
2019-01-04T02:25:31.059Z,3.41
2019-01-04T02:26:31.192Z,3.45
2019-01-04T02:27:31.312Z,3.42
2019-01-04T02:28:31.442Z,3.30
2019-01-04T02:29:31.570Z,3.36
2019-01-04T02:30:31.701Z,3.22
2019-01-04T02:31:31.830Z,3.15
2019-01-04T02:32:31.954Z,3.22
2019-01-04T02:33:32.084Z,3.17
2019-01-04T02:34:32.208Z,3.17
2019-01-04T02:35:32.340Z,3.08
2019-01-04T02:36:32.468Z,3.07
2019-01-04T02:37:32.591Z,2.97
2019-01-04T02:38:32.721Z,3.04
2019-01-04T02:39:32.851Z,2.99
2019-01-04T02:40:32.975Z,3.08
2019-01-04T02:41:33.116Z,3.07
2019-01-04T02:42:33.238Z,3.09
2019-01-04T02:43:33.363Z,3.20
2019-01-04T02:44:33.502Z,3.17
2019-01-04T02:45:33.629Z,3.22
2019-01-04T02:46:33.754Z,3.15
2019-01-04T02:47:33.883Z,3.32
2019-01-04T02:48:34.012Z,3.23
2019-01-04T02:49:34.135Z,3.26
2019-01-04T02:50:34.260Z,3.41
2019-01-04T02:51:34.391Z,3.36
2019-01-04T02:52:34.524Z,3.29
2019-01-04T02:53:34.653Z,3.25
2019-01-04T02:54:34.780Z,3.33
2019-01-04T02:55:34.912Z,3.30
2019-01-04T02:56:35.054Z,3.25
2019-01-04T02:57:35.177Z,3.32
2019-01-04T02:58:35.354Z,3.30
2019-01-04T02:59:35.476Z,3.32
2019-01-04T03:00:35.620Z,3.27
2019-01-04T03:01:36.681Z,3.27
2019-01-04T03:02:35.874Z,3.26
2019-01-04T03:03:36.000Z,3.27
2019-01-04T03:04:36.121Z,3.26
2019-01-04T03:05:36.257Z,3.30
2019-01-04T03:06:36.386Z,3.32
2019-01-04T03:07:36.527Z,3.36
2019-01-04T03:08:36.649Z,3.20
2019-01-04T03:09:36.778Z,3.17
2019-01-04T03:10:36.905Z,3.17
2019-01-04T03:11:37.032Z,3.17
2019-01-04T03:12:37.157Z,3.22
2019-01-04T03:13:37.289Z,3.09
2019-01-04T03:14:37.411Z,3.05
2019-01-04T03:15:37.543Z,2.91
2019-01-04T03:16:37.668Z,3.00
2019-01-04T03:17:37.798Z,3.02
2019-01-04T03:18:37.926Z,2.93
2019-01-04T03:19:38.064Z,3.07
2019-01-04T03:20:38.203Z,3.05
2019-01-04T03:21:38.336Z,3.05
2019-01-04T03:22:38.459Z,3.05
2019-01-04T03:23:38.596Z,3.05
2019-01-04T03:24:38.726Z,3.18
2019-01-04T03:25:38.854Z,3.07
2019-01-04T03:26:38.981Z,3.09
2019-01-04T03:27:39.104Z,3.20
2019-01-04T03:28:39.235Z,3.18
2019-01-04T03:29:39.364Z,3.15
2019-01-04T03:30:39.495Z,3.12
2019-01-04T03:31:39.628Z,3.27
2019-01-04T03:32:39.747Z,3.29
2019-01-04T03:33:39.874Z,3.25
2019-01-04T03:34:39.998Z,3.29
2019-01-04T03:35:40.125Z,3.33
2019-01-04T03:36:40.250Z,3.30
2019-01-04T03:37:40.386Z,3.27
2019-01-04T03:38:40.506Z,3.30
2019-01-04T03:39:40.634Z,3.29
2019-01-04T03:40:40.764Z,3.36
2019-01-04T03:41:40.893Z,3.29
2019-01-04T03:42:41.020Z,3.33
2019-01-04T03:43:41.148Z,3.35
2019-01-04T03:44:41.278Z,3.29
2019-01-04T03:45:41.407Z,3.30
2019-01-04T03:46:41.538Z,3.30
2019-01-04T03:47:41.667Z,3.36
2019-01-04T03:48:41.794Z,3.30
2019-01-04T03:49:41.922Z,3.30
2019-01-04T03:50:42.048Z,3.32
2019-01-04T03:51:42.179Z,3.30
2019-01-04T03:52:42.304Z,3.23
2019-01-04T03:53:42.433Z,3.27
2019-01-04T03:54:42.562Z,3.27
2019-01-04T03:55:42.696Z,3.30
2019-01-04T03:56:42.835Z,3.29
2019-01-04T03:57:42.975Z,3.27
2019-01-04T03:58:43.093Z,3.22
2019-01-04T03:59:43.217Z,3.17
2019-01-04T04:00:43.346Z,3.15
2019-01-04T04:01:43.474Z,3.17
2019-01-04T04:02:43.604Z,3.25
2019-01-04T04:03:43.733Z,3.36
2019-01-04T04:04:43.859Z,3.27
2019-01-04T04:05:43.989Z,3.36
2019-01-04T04:06:44.115Z,3.27
2019-01-04T04:07:44.245Z,3.30
2019-01-04T04:08:44.379Z,3.22
2019-01-04T04:09:44.514Z,3.27
2019-01-04T04:10:44.638Z,3.33
2019-01-04T04:11:44.767Z,3.33
2019-01-04T04:12:44.905Z,3.33
2019-01-04T04:13:45.026Z,3.35
2019-01-04T04:14:45.154Z,3.35
2019-01-04T04:15:45.750Z,3.30
2019-01-04T04:16:45.407Z,3.37
2019-01-04T04:17:45.534Z,3.37
2019-01-04T04:18:45.659Z,3.27
2019-01-04T04:19:45.793Z,3.23
2019-01-04T04:20:45.923Z,3.18
2019-01-04T04:21:46.059Z,3.11
2019-01-04T04:22:46.189Z,3.17
2019-01-04T04:23:46.319Z,3.18
2019-01-04T04:24:46.447Z,3.22
2019-01-04T04:25:46.573Z,3.29
2019-01-04T04:26:46.710Z,3.30
2019-01-04T04:27:46.835Z,3.23
2019-01-04T04:28:46.969Z,3.29
2019-01-04T04:29:47.090Z,3.32
2019-01-04T04:30:47.218Z,3.30
2019-01-04T04:31:47.342Z,3.33
2019-01-04T04:32:48.264Z,3.30
2019-01-04T04:33:47.533Z,3.37
2019-01-04T04:34:47.663Z,3.35
2019-01-04T04:35:47.791Z,3.35
2019-01-04T04:36:47.921Z,3.42
2019-01-04T04:37:48.046Z,3.36
2019-01-04T04:38:48.174Z,3.35
2019-01-04T04:39:48.305Z,3.37
2019-01-04T04:40:48.458Z,3.33
2019-01-04T04:41:48.575Z,3.33
2019-01-04T04:42:48.701Z,3.32
2019-01-04T04:43:48.826Z,3.35
2019-01-04T04:44:48.955Z,3.29
2019-01-04T04:45:49.087Z,3.41
2019-01-04T04:46:49.270Z,3.37
2019-01-04T04:47:49.407Z,3.36
2019-01-04T04:48:49.543Z,3.35
2019-01-04T04:49:49.733Z,3.35
2019-01-04T04:50:49.741Z,3.35
2019-01-04T04:51:49.909Z,3.30
2019-01-04T04:53:14.331Z,3.29
2019-01-04T04:53:50.255Z,3.30
2019-01-04T04:54:50.327Z,3.32
2019-01-04T04:55:50.496Z,3.33
2019-01-04T04:57:05.346Z,3.30
2019-01-04T04:57:50.724Z,3.26
2019-01-04T04:58:50.852Z,3.20
2019-01-04T04:59:50.978Z,3.26
2019-01-04T05:00:51.106Z,3.25
2019-01-04T05:01:51.229Z,3.27
2019-01-04T05:02:51.354Z,3.20
2019-01-04T05:03:51.492Z,3.15
2019-01-04T05:04:51.616Z,3.18
2019-01-04T05:05:51.747Z,3.29
2019-01-04T05:06:52.781Z,3.29
2019-01-04T05:07:52.018Z,3.30
2019-01-04T05:09:17.535Z,3.22
2019-01-04T05:09:52.290Z,3.25
2019-01-04T05:10:52.423Z,3.30
2019-01-04T05:11:52.546Z,3.26
2019-01-04T05:12:52.679Z,3.25
2019-01-04T05:13:52.807Z,3.27
2019-01-04T05:14:52.936Z,3.26
2019-01-04T05:15:53.068Z,3.27
2019-01-04T05:16:53.189Z,3.25
2019-01-04T05:17:53.326Z,3.22
2019-01-04T05:18:53.454Z,3.33
2019-01-04T05:19:53.580Z,3.22
2019-01-04T05:20:53.709Z,3.25
2019-01-04T05:21:53.828Z,3.33
2019-01-04T05:22:53.956Z,3.30
2019-01-04T05:23:54.084Z,3.30
2019-01-04T05:24:54.215Z,3.23
2019-01-04T05:25:54.335Z,3.30
2019-01-04T05:26:54.464Z,3.32
2019-01-04T05:27:54.598Z,3.25
2019-01-04T05:28:54.721Z,3.27
2019-01-04T05:29:54.853Z,3.18
2019-01-04T05:30:55.003Z,3.27
2019-01-04T05:31:55.112Z,3.25
2019-01-04T05:32:55.235Z,3.29
2019-01-04T05:33:55.364Z,3.23
2019-01-04T05:34:55.487Z,3.18
2019-01-04T05:35:55.613Z,3.15
2019-01-04T05:36:55.745Z,3.25
2019-01-04T05:37:55.876Z,3.35
2019-01-04T05:38:56.000Z,3.25
2019-01-04T05:39:56.124Z,3.25
2019-01-04T05:40:56.268Z,3.32
2019-01-04T05:41:56.380Z,3.23
2019-01-04T05:42:56.532Z,3.26
2019-01-04T05:43:56.659Z,3.22
2019-01-04T05:44:56.788Z,3.12
2019-01-04T05:45:56.914Z,3.27
2019-01-04T05:46:57.045Z,3.23
2019-01-04T05:47:57.187Z,3.26
2019-01-04T05:48:57.298Z,3.20
2019-01-04T05:49:57.427Z,3.18
2019-01-04T05:50:57.556Z,3.20
2019-01-04T05:51:57.684Z,3.20
2019-01-04T05:52:57.816Z,3.17
2019-01-04T05:53:57.944Z,3.20
2019-01-04T05:54:58.071Z,3.08
2019-01-04T05:55:58.202Z,3.08
2019-01-04T05:56:58.349Z,3.07
2019-01-04T05:57:58.474Z,3.12
2019-01-04T05:58:58.640Z,3.11
2019-01-04T05:59:58.729Z,3.07
2019-01-04T06:00:58.860Z,3.15
2019-01-04T06:01:58.986Z,3.05
2019-01-04T06:02:59.118Z,3.07
2019-01-04T06:03:59.237Z,3.14
2019-01-04T06:04:59.364Z,3.14
2019-01-04T06:05:59.486Z,3.09
2019-01-04T06:06:59.611Z,2.90
2019-01-04T06:07:59.736Z,2.99
2019-01-04T06:08:59.867Z,3.00
2019-01-04T06:09:59.998Z,2.97
2019-01-04T06:11:00.127Z,2.90
2019-01-04T06:12:00.249Z,2.78
2019-01-04T06:13:00.380Z,2.78
2019-01-04T06:14:00.511Z,2.68
2019-01-04T06:15:00.638Z,2.69
2019-01-04T06:16:00.769Z,2.78
2019-01-04T06:17:00.893Z,2.75
2019-01-04T06:18:01.019Z,2.84
2019-01-04T06:19:01.149Z,2.76
2019-01-04T06:20:01.286Z,2.84
2019-01-04T06:21:01.413Z,2.82
2019-01-04T06:22:01.530Z,2.75
2019-01-04T06:23:01.663Z,2.73
2019-01-04T06:24:01.800Z,2.78
2019-01-04T06:25:01.925Z,2.76
2019-01-04T06:26:02.043Z,2.73
2019-01-04T06:27:02.173Z,2.58
2019-01-04T06:28:02.296Z,2.57
2019-01-04T06:29:02.417Z,2.63
2019-01-04T06:30:02.550Z,2.61
2019-01-04T06:31:02.672Z,2.66
2019-01-04T06:32:02.804Z,2.65
2019-01-04T06:33:02.928Z,2.81
2019-01-04T06:34:03.059Z,2.71
2019-01-04T06:35:03.194Z,2.73
2019-01-04T06:36:03.339Z,2.82
2019-01-04T06:37:03.472Z,2.94
2019-01-04T06:38:03.594Z,2.94
2019-01-04T06:39:03.720Z,3.07
2019-01-04T06:40:03.842Z,2.93
2019-01-04T06:41:03.977Z,3.00
2019-01-04T06:42:04.099Z,2.99
2019-01-04T06:43:04.228Z,3.11
2019-01-04T06:44:04.354Z,3.02
2019-01-04T06:45:04.487Z,3.15
2019-01-04T06:46:04.618Z,3.23
2019-01-04T06:47:04.737Z,3.15
2019-01-04T06:48:04.865Z,3.20
2019-01-04T06:49:04.988Z,3.14
2019-01-04T06:50:05.115Z,3.23
2019-01-04T06:51:05.242Z,3.22
2019-01-04T06:52:05.453Z,3.14
2019-01-04T06:53:05.456Z,3.26
2019-01-04T06:54:05.582Z,3.29
2019-01-04T06:55:05.710Z,3.23
2019-01-04T06:56:05.837Z,3.33
2019-01-04T06:57:05.968Z,3.30
2019-01-04T06:58:06.097Z,3.27
2019-01-04T06:59:06.224Z,3.33
2019-01-04T07:00:06.351Z,3.35
2019-01-04T07:01:06.477Z,3.30
2019-01-04T07:02:06.615Z,3.32
2019-01-04T07:03:06.735Z,3.37
2019-01-04T07:04:06.865Z,3.23
2019-01-04T07:05:06.996Z,3.18
2019-01-04T07:06:07.122Z,3.09
2019-01-04T07:07:07.307Z,3.14
2019-01-04T07:08:29.273Z,2.96
2019-01-04T07:09:07.526Z,2.82
2019-01-04T07:10:07.657Z,2.63
2019-01-04T07:11:07.785Z,2.57
2019-01-04T07:12:44.668Z,2.53
2019-01-04T07:13:08.047Z,2.50
2019-01-04T07:14:08.168Z,2.43
2019-01-04T07:15:08.285Z,2.51
2019-01-04T07:16:08.418Z,2.50
2019-01-04T07:17:08.542Z,2.33
2019-01-04T07:18:08.673Z,2.30
2019-01-04T07:19:08.803Z,2.35
2019-01-04T07:20:08.928Z,2.45
2019-01-04T07:21:09.050Z,2.45
2019-01-04T07:22:09.183Z,2.37
2019-01-04T07:23:09.313Z,2.33
2019-01-04T07:24:09.436Z,2.36
2019-01-04T07:25:09.561Z,2.37
2019-01-04T07:26:09.688Z,2.35
2019-01-04T07:27:09.809Z,2.35
2019-01-04T07:28:09.939Z,2.29
2019-01-04T07:29:10.066Z,2.30
2019-01-04T07:30:10.195Z,2.28
2019-01-04T07:31:10.323Z,2.21
2019-01-04T07:32:10.452Z,2.22
2019-01-04T07:33:10.577Z,2.22
2019-01-04T07:34:10.705Z,2.21
2019-01-04T07:35:10.833Z,2.21
2019-01-04T07:36:10.955Z,2.21
2019-01-04T07:37:11.079Z,2.21
2019-01-04T07:38:11.203Z,2.19
2019-01-04T07:39:11.333Z,2.24
2019-01-04T07:40:12.373Z,2.28
2019-01-04T07:41:11.602Z,2.35
2019-01-04T07:42:20.282Z,2.37
2019-01-04T07:43:16.490Z,2.48
2019-01-04T07:44:12.065Z,2.47
2019-01-04T07:45:12.188Z,2.45
2019-01-04T07:46:12.317Z,2.54
2019-01-04T07:47:12.443Z,2.48
2019-01-04T07:48:12.566Z,2.50
2019-01-04T07:49:12.695Z,2.55
2019-01-04T07:50:12.830Z,2.57
2019-01-04T07:51:12.952Z,2.45
2019-01-04T07:52:13.088Z,2.40
2019-01-04T07:53:13.216Z,2.33
2019-01-04T07:54:13.338Z,2.25
2019-01-04T07:55:13.464Z,2.39
2019-01-04T07:56:13.593Z,2.33
2019-01-04T07:57:13.717Z,2.22
2019-01-04T07:58:13.843Z,2.36
2019-01-04T07:59:13.973Z,2.36
2019-01-04T08:00:14.109Z,2.29
2019-01-04T08:01:14.247Z,2.21
2019-01-04T08:02:14.368Z,2.17
2019-01-04T08:03:14.492Z,2.29
2019-01-04T08:04:14.623Z,2.24
2019-01-04T08:05:14.748Z,2.24
2019-01-04T08:06:14.874Z,2.21
2019-01-04T08:07:15.004Z,2.15
2019-01-04T08:08:15.130Z,2.14
2019-01-04T08:09:15.254Z,2.17
2019-01-04T08:10:15.382Z,2.21
2019-01-04T08:11:15.509Z,2.19
2019-01-04T08:12:15.629Z,2.21
2019-01-04T08:13:15.761Z,2.11
2019-01-04T08:14:15.889Z,2.15
2019-01-04T08:15:16.017Z,2.12
2019-01-04T08:16:16.150Z,2.14
2019-01-04T08:17:16.300Z,2.15
2019-01-04T08:18:16.426Z,2.15
2019-01-04T08:19:16.553Z,2.17
2019-01-04T08:20:16.677Z,2.24
2019-01-04T08:21:16.806Z,2.14
2019-01-04T08:22:16.933Z,2.21
2019-01-04T08:23:17.060Z,2.15
2019-01-04T08:24:17.188Z,2.14
2019-01-04T08:25:17.318Z,2.15
2019-01-04T08:26:17.434Z,2.11
2019-01-04T08:27:17.571Z,2.11
2019-01-04T08:28:17.693Z,2.10
2019-01-04T08:29:17.819Z,2.01
2019-01-04T08:30:17.948Z,2.11
2019-01-04T08:31:18.094Z,2.10
2019-01-04T08:32:18.222Z,2.15
2019-01-04T08:33:18.352Z,2.22
2019-01-04T08:34:18.483Z,2.12
2019-01-04T08:35:18.605Z,2.22
2019-01-04T08:36:18.727Z,2.15
2019-01-04T08:37:18.858Z,2.10
2019-01-04T08:38:18.987Z,2.14
2019-01-04T08:39:19.115Z,2.07
2019-01-04T08:40:19.233Z,2.14
2019-01-04T08:41:19.362Z,2.06
2019-01-04T08:42:19.496Z,2.06
2019-01-04T08:43:19.617Z,2.10
2019-01-04T08:44:19.744Z,2.12
2019-01-04T08:45:19.873Z,2.10
2019-01-04T08:46:19.997Z,2.11
2019-01-04T08:47:20.123Z,2.15
2019-01-04T08:48:20.254Z,2.11
2019-01-04T08:49:20.382Z,2.17
2019-01-04T08:50:20.506Z,2.18
2019-01-04T08:51:20.634Z,2.19
2019-01-04T08:52:20.759Z,2.18
2019-01-04T08:53:20.885Z,2.19
2019-01-04T08:54:21.014Z,2.21
2019-01-04T08:55:21.154Z,2.21
2019-01-04T08:56:21.262Z,2.21
2019-01-04T08:57:21.395Z,2.15
2019-01-04T08:58:21.513Z,2.28
2019-01-04T08:59:21.637Z,2.24
2019-01-04T09:00:21.765Z,2.19
2019-01-04T09:01:21.901Z,2.19
2019-01-04T09:02:22.024Z,2.28
2019-01-04T09:03:22.147Z,2.30
2019-01-04T09:04:22.280Z,2.25
2019-01-04T09:05:22.405Z,2.24
2019-01-04T09:06:22.536Z,2.28
2019-01-04T09:07:22.663Z,2.32
2019-01-04T09:08:22.788Z,2.47
2019-01-04T09:09:22.914Z,2.29
2019-01-04T09:10:23.039Z,2.37
2019-01-04T09:11:23.163Z,2.35
2019-01-04T09:12:23.288Z,2.42
2019-01-04T09:13:23.420Z,2.37
2019-01-04T09:14:23.553Z,2.51
2019-01-04T09:15:23.676Z,2.45
2019-01-04T09:16:23.802Z,2.42
2019-01-04T09:17:23.928Z,2.32
2019-01-04T09:18:24.055Z,2.53
2019-01-04T09:19:24.205Z,2.43
2019-01-04T09:20:24.333Z,2.50
2019-01-04T09:21:24.455Z,2.48
2019-01-04T09:22:24.586Z,2.55
2019-01-04T09:23:24.710Z,2.60
2019-01-04T09:24:24.839Z,2.58
2019-01-04T09:25:24.969Z,2.50
2019-01-04T09:26:25.092Z,2.54
2019-01-04T09:27:25.216Z,2.50
2019-01-04T09:28:25.349Z,2.58
2019-01-04T09:29:25.470Z,2.54
2019-01-04T09:30:25.603Z,2.58
2019-01-04T09:31:25.717Z,2.58
2019-01-04T09:32:25.842Z,2.60
2019-01-04T09:33:25.960Z,2.66
2019-01-04T09:34:26.100Z,2.76
2019-01-04T09:35:26.224Z,2.65
2019-01-04T09:36:26.362Z,2.71
2019-01-04T09:37:26.495Z,2.72
2019-01-04T09:38:26.617Z,2.68
2019-01-04T09:39:26.743Z,2.68
2019-01-04T09:40:26.871Z,2.65
2019-01-04T09:41:27.002Z,2.72
2019-01-04T09:42:27.132Z,2.81
2019-01-04T09:43:27.252Z,2.79
2019-01-04T09:44:27.378Z,2.78
2019-01-04T09:45:27.512Z,2.93
2019-01-04T09:46:27.641Z,2.90
2019-01-04T09:47:27.772Z,2.99
2019-01-04T09:48:27.898Z,3.07
2019-01-04T09:49:28.028Z,2.99
2019-01-04T09:50:28.156Z,2.90
2019-01-04T09:51:28.302Z,2.87
2019-01-04T09:52:28.435Z,2.81
2019-01-04T09:53:28.561Z,2.97
2019-01-04T09:54:28.685Z,2.90
2019-01-04T09:55:28.816Z,2.87
2019-01-04T09:56:28.945Z,2.96
2019-01-04T09:57:29.075Z,2.99
2019-01-04T09:58:29.198Z,3.00
2019-01-04T09:59:29.329Z,3.00
2019-01-04T10:00:29.466Z,3.07
2019-01-04T10:01:29.588Z,3.12
2019-01-04T10:02:29.711Z,3.08
2019-01-04T10:03:29.835Z,3.08
2019-01-04T10:04:29.968Z,3.14
2019-01-04T10:05:30.095Z,3.22
2019-01-04T10:06:30.222Z,3.26
2019-01-04T10:07:30.362Z,3.18
2019-01-04T10:08:30.473Z,3.22
2019-01-04T10:09:30.601Z,3.17
2019-01-04T10:10:30.726Z,3.23
2019-01-04T10:11:30.858Z,3.14
2019-01-04T10:12:30.981Z,3.18
2019-01-04T10:13:31.107Z,3.26
2019-01-04T10:14:31.229Z,3.35
2019-01-04T10:15:31.372Z,3.26
2019-01-04T10:16:31.552Z,3.27
2019-01-04T10:17:31.677Z,3.26
2019-01-04T10:18:31.808Z,3.27
2019-01-04T10:19:32.893Z,3.17
2019-01-04T10:20:32.049Z,3.22
2019-01-04T10:21:32.174Z,3.18
2019-01-04T10:22:32.305Z,3.12
2019-01-04T10:23:32.436Z,3.23
2019-01-04T10:24:32.567Z,3.14
2019-01-04T10:25:32.694Z,3.23
2019-01-04T10:26:32.818Z,3.36
2019-01-04T10:27:32.967Z,3.35
2019-01-04T10:28:33.086Z,3.35
2019-01-04T10:29:33.226Z,3.37
2019-01-04T10:30:33.343Z,3.51
2019-01-04T10:31:33.473Z,3.44
2019-01-04T10:32:33.622Z,3.48
2019-01-04T10:33:33.761Z,3.35
2019-01-04T10:34:33.889Z,3.48
2019-01-04T10:35:34.017Z,3.49
2019-01-04T10:36:34.183Z,3.44
2019-01-04T10:37:34.333Z,3.48
2019-01-04T10:38:34.457Z,3.45
2019-01-04T10:39:34.588Z,3.48
2019-01-04T10:40:34.753Z,3.44
2019-01-04T10:41:34.964Z,3.33
2019-01-04T10:42:34.968Z,3.51
2019-01-04T10:43:35.090Z,3.54
2019-01-04T10:44:35.238Z,3.56
2019-01-04T10:45:35.362Z,3.48
2019-01-04T10:46:35.489Z,3.49
2019-01-04T10:47:35.618Z,3.51
2019-01-04T10:48:35.784Z,3.51
2019-01-04T10:49:35.883Z,3.60
2019-01-04T10:50:36.014Z,3.49
2019-01-04T10:51:36.145Z,3.46
2019-01-04T10:52:36.269Z,3.37
2019-01-04T10:53:36.413Z,3.45
2019-01-04T10:54:36.536Z,3.37
2019-01-04T10:55:36.663Z,3.35
2019-01-04T10:56:36.791Z,3.45
2019-01-04T10:57:36.919Z,3.37
2019-01-04T10:58:37.046Z,3.51
2019-01-04T10:59:37.180Z,3.51
2019-01-04T11:00:37.304Z,3.51
2019-01-04T11:01:37.427Z,3.48
2019-01-04T11:02:37.557Z,3.54
2019-01-04T11:03:37.691Z,3.59
2019-01-04T11:04:37.824Z,3.63
2019-01-04T11:05:37.952Z,3.62
2019-01-04T11:06:38.071Z,3.51
2019-01-04T11:07:38.196Z,3.62
2019-01-04T11:08:38.328Z,3.62
2019-01-04T11:09:38.447Z,3.67
2019-01-04T11:10:38.576Z,3.72
2019-01-04T11:11:38.704Z,3.62
2019-01-04T11:12:38.828Z,3.69
2019-01-04T11:13:38.952Z,3.80
2019-01-04T11:14:39.086Z,3.80
2019-01-04T11:15:39.213Z,3.73
2019-01-04T11:16:39.337Z,3.85
2019-01-04T11:17:39.462Z,3.94
2019-01-04T11:18:39.587Z,3.88
2019-01-04T11:19:39.713Z,3.90
2019-01-04T11:20:39.842Z,3.98
2019-01-04T11:21:39.965Z,3.91
2019-01-04T11:22:40.094Z,3.90
2019-01-04T11:23:40.221Z,3.85
2019-01-04T11:24:40.349Z,3.99
2019-01-04T11:25:40.479Z,3.96
2019-01-04T11:26:40.612Z,4.02
2019-01-04T11:27:40.732Z,3.92
2019-01-04T11:28:40.858Z,3.99
2019-01-04T11:29:40.989Z,3.94
2019-01-04T11:30:41.119Z,4.00
2019-01-04T11:31:41.239Z,3.99
2019-01-04T11:32:41.372Z,4.02
2019-01-04T11:33:41.498Z,3.98
2019-01-04T11:34:41.622Z,4.09
2019-01-04T11:35:41.751Z,4.10
2019-01-04T11:36:41.878Z,3.96
2019-01-04T11:37:42.006Z,4.10
2019-01-04T11:38:42.135Z,4.09
2019-01-04T11:39:42.260Z,4.16
2019-01-04T11:40:42.390Z,4.03
2019-01-04T11:41:42.518Z,4.10
2019-01-04T11:42:42.656Z,4.02
2019-01-04T11:43:42.789Z,3.96
2019-01-04T11:44:42.920Z,4.05
2019-01-04T11:45:43.050Z,4.05
2019-01-04T11:46:43.177Z,3.96
2019-01-04T11:47:43.306Z,4.05
2019-01-04T11:48:43.439Z,4.09
2019-01-04T11:49:43.564Z,4.02
2019-01-04T11:50:43.690Z,4.00
2019-01-04T11:51:43.818Z,3.98
2019-01-04T11:52:43.946Z,3.94
2019-01-04T11:53:44.077Z,4.05
2019-01-04T11:54:44.199Z,4.02
2019-01-04T11:55:44.333Z,4.05
2019-01-04T11:56:44.453Z,4.02
2019-01-04T11:57:44.579Z,3.96
2019-01-04T11:58:44.719Z,3.88
2019-01-04T11:59:44.838Z,3.87
2019-01-04T12:00:44.970Z,3.91
2019-01-04T12:01:45.102Z,3.82
2019-01-04T12:02:45.231Z,3.87
2019-01-04T12:03:45.360Z,3.84
2019-01-04T12:04:45.491Z,3.87
2019-01-04T12:05:45.613Z,3.88
2019-01-04T12:06:45.755Z,3.82
2019-01-04T12:07:45.890Z,3.82
2019-01-04T12:08:46.011Z,3.84
2019-01-04T12:09:46.138Z,3.88
2019-01-04T12:10:46.256Z,3.88
2019-01-04T12:11:46.390Z,3.88
2019-01-04T12:12:46.522Z,3.94
2019-01-04T12:13:46.650Z,3.80
2019-01-04T12:14:46.780Z,3.76
2019-01-04T12:15:46.914Z,3.76
2019-01-04T12:16:47.038Z,3.85
2019-01-04T12:17:47.164Z,3.82
2019-01-04T12:18:47.303Z,3.64
2019-01-04T12:19:47.430Z,3.67
2019-01-04T12:20:47.566Z,3.59
2019-01-04T12:21:47.695Z,3.59
2019-01-04T12:22:47.824Z,3.51
2019-01-04T12:23:47.950Z,3.56
2019-01-04T12:24:49.006Z,3.52
2019-01-04T12:25:48.150Z,3.59
2019-01-04T12:26:48.275Z,3.42
2019-01-04T12:27:48.405Z,3.54
2019-01-04T12:28:48.530Z,3.44
2019-01-04T12:29:48.662Z,3.35
2019-01-04T12:30:48.799Z,3.35
2019-01-04T12:31:48.934Z,3.30
2019-01-04T12:32:49.077Z,3.25
2019-01-04T12:33:49.205Z,3.29
2019-01-04T12:34:49.344Z,3.32
2019-01-04T12:35:49.471Z,3.32
2019-01-04T12:36:49.592Z,3.41
2019-01-04T12:37:49.725Z,3.41
2019-01-04T12:38:49.859Z,3.42
2019-01-04T12:39:49.981Z,3.35
2019-01-04T12:40:50.116Z,3.33
2019-01-04T12:41:50.262Z,3.37
2019-01-04T12:42:50.389Z,3.27
2019-01-04T12:43:50.518Z,3.32
2019-01-04T12:44:50.646Z,3.30
2019-01-04T12:45:50.774Z,3.23
2019-01-04T12:46:50.899Z,3.18
2019-01-04T12:47:51.035Z,3.12
2019-01-04T12:48:51.165Z,3.26
2019-01-04T12:49:51.285Z,3.29
2019-01-04T12:50:51.415Z,3.29
2019-01-04T12:51:51.539Z,3.15
2019-01-04T12:52:51.669Z,3.15
2019-01-04T12:53:51.787Z,3.11
2019-01-04T12:54:51.932Z,3.23
2019-01-04T12:55:52.066Z,3.26
2019-01-04T12:56:52.192Z,3.27
2019-01-04T12:57:52.317Z,3.37
2019-01-04T12:58:53.014Z,3.33
2019-01-04T12:59:52.543Z,3.41
2019-01-04T13:00:52.670Z,3.33
2019-01-04T13:01:52.808Z,3.42
2019-01-04T13:02:52.933Z,3.36
2019-01-04T13:03:53.076Z,3.33
2019-01-04T13:04:53.197Z,3.36
2019-01-04T13:05:53.325Z,3.49
2019-01-04T13:06:53.449Z,3.46
2019-01-04T13:07:53.589Z,3.36
2019-01-04T13:08:53.707Z,3.42
2019-01-04T13:09:53.836Z,3.36
2019-01-04T13:10:53.981Z,3.32
2019-01-04T13:11:54.191Z,3.37
2019-01-04T13:12:54.188Z,3.46
2019-01-04T13:13:54.327Z,3.49
2019-01-04T13:14:54.490Z,3.51
2019-01-04T13:15:55.105Z,3.44
2019-01-04T13:16:54.763Z,3.51
2019-01-04T13:17:54.913Z,3.33
2019-01-04T13:18:55.031Z,3.42
2019-01-04T13:19:55.172Z,3.30
2019-01-04T13:20:55.297Z,3.32
2019-01-04T13:21:55.422Z,3.33